sensor_id;sensor_type;location;lat;lon;timestamp;temperature;humidity
20446;DHT22;10382;49.140;9.234;2024-03-29T00:00:26;10.10;93.70
20446;DHT22;10382;49.140;9.234;2024-03-29T00:02:53;10.20;93.10
20446;DHT22;10382;49.140;9.234;2024-03-29T00:05:19;10.20;92.90
20446;DHT22;10382;49.140;9.234;2024-03-29T00:07:45;10.30;93.00
20446;DHT22;10382;49.140;9.234;2024-03-29T00:10:11;10.30;92.60
20446;DHT22;10382;49.140;9.234;2024-03-29T00:12:37;10.30;92.60
20446;DHT22;10382;49.140;9.234;2024-03-29T00:15:03;10.40;92.70
20446;DHT22;10382;49.140;9.234;2024-03-29T00:17:29;10.40;92.80
20446;DHT22;10382;49.140;9.234;2024-03-29T00:19:56;10.40;92.70
20446;DHT22;10382;49.140;9.234;2024-03-29T00:22:22;10.40;92.50
20446;DHT22;10382;49.140;9.234;2024-03-29T00:24:48;10.50;92.20
20446;DHT22;10382;49.140;9.234;2024-03-29T00:27:14;10.50;92.10
20446;DHT22;10382;49.140;9.234;2024-03-29T00:29:40;10.60;92.20
20446;DHT22;10382;49.140;9.234;2024-03-29T00:32:06;10.70;92.10
20446;DHT22;10382;49.140;9.234;2024-03-29T00:34:32;10.70;92.00
20446;DHT22;10382;49.140;9.234;2024-03-29T00:37:00;10.70;92.00
20446;DHT22;10382;49.140;9.234;2024-03-29T00:39:26;10.70;92.10
20446;DHT22;10382;49.140;9.234;2024-03-29T00:41:51;10.60;92.60
20446;DHT22;10382;49.140;9.234;2024-03-29T00:44:17;10.60;92.70
20446;DHT22;10382;49.140;9.234;2024-03-29T00:46:43;10.50;93.10
20446;DHT22;10382;49.140;9.234;2024-03-29T00:49:09;10.60;93.20
20446;DHT22;10382;49.140;9.234;2024-03-29T00:51:35;10.50;93.00
20446;DHT22;10382;49.140;9.234;2024-03-29T00:54:02;10.50;93.10
20446;DHT22;10382;49.140;9.234;2024-03-29T00:56:28;10.60;93.00
20446;DHT22;10382;49.140;9.234;2024-03-29T00:58:54;10.60;93.00
20446;DHT22;10382;49.140;9.234;2024-03-29T01:01:20;10.70;93.00
20446;DHT22;10382;49.140;9.234;2024-03-29T01:03:46;10.70;93.00
20446;DHT22;10382;49.140;9.234;2024-03-29T01:06:12;10.80;92.70
20446;DHT22;10382;49.140;9.234;2024-03-29T01:08:38;10.80;92.90
20446;DHT22;10382;49.140;9.234;2024-03-29T01:11:05;10.80;92.60
20446;DHT22;10382;49.140;9.234;2024-03-29T01:13:31;10.80;92.80
20446;DHT22;10382;49.140;9.234;2024-03-29T01:15:57;10.80;92.70
20446;DHT22;10382;49.140;9.234;2024-03-29T01:18:23;10.90;92.70
20446;DHT22;10382;49.140;9.234;2024-03-29T01:20:49;10.80;92.70
20446;DHT22;10382;49.140;9.234;2024-03-29T01:23:15;10.80;92.50
20446;DHT22;10382;49.140;9.234;2024-03-29T01:25:40;10.90;92.80
20446;DHT22;10382;49.140;9.234;2024-03-29T01:28:08;11.00;92.50
20446;DHT22;10382;49.140;9.234;2024-03-29T01:30:34;11.00;92.40
20446;DHT22;10382;49.140;9.234;2024-03-29T01:32:59;11.00;92.30
20446;DHT22;10382;49.140;9.234;2024-03-29T01:35:25;11.10;92.30
20446;DHT22;10382;49.140;9.234;2024-03-29T01:37:51;11.10;92.20
20446;DHT22;10382;49.140;9.234;2024-03-29T01:40:17;11.20;92.00
20446;DHT22;10382;49.140;9.234;2024-03-29T01:42:43;11.20;92.00
20446;DHT22;10382;49.140;9.234;2024-03-29T01:45:11;11.20;91.90
20446;DHT22;10382;49.140;9.234;2024-03-29T01:47:37;11.20;91.90
20446;DHT22;10382;49.140;9.234;2024-03-29T01:50:05;11.20;91.70
20446;DHT22;10382;49.140;9.234;2024-03-29T01:52:32;11.10;92.00
20446;DHT22;10382;49.140;9.234;2024-03-29T01:55:00;11.10;91.90
20446;DHT22;10382;49.140;9.234;2024-03-29T01:57:27;11.20;92.00
20446;DHT22;10382;49.140;9.234;2024-03-29T01:59:55;11.20;92.00
20446;DHT22;10382;49.140;9.234;2024-03-29T02:02:24;11.20;91.80
20446;DHT22;10382;49.140;9.234;2024-03-29T02:04:51;11.20;91.70
20446;DHT22;10382;49.140;9.234;2024-03-29T02:07:18;11.20;91.70
20446;DHT22;10382;49.140;9.234;2024-03-29T02:09:45;11.20;91.30
20446;DHT22;10382;49.140;9.234;2024-03-29T02:12:12;11.30;91.30
20446;DHT22;10382;49.140;9.234;2024-03-29T02:14:38;11.40;91.20
20446;DHT22;10382;49.140;9.234;2024-03-29T02:17:06;11.40;91.00
20446;DHT22;10382;49.140;9.234;2024-03-29T02:19:34;11.40;90.60
20446;DHT22;10382;49.140;9.234;2024-03-29T02:22:01;11.50;90.40
20446;DHT22;10382;49.140;9.234;2024-03-29T02:24:33;11.50;90.10
20446;DHT22;10382;49.140;9.234;2024-03-29T02:27:00;11.70;90.10
20446;DHT22;10382;49.140;9.234;2024-03-29T02:29:27;11.70;88.80
20446;DHT22;10382;49.140;9.234;2024-03-29T02:31:54;11.70;88.50
20446;DHT22;10382;49.140;9.234;2024-03-29T02:34:20;11.80;87.70
20446;DHT22;10382;49.140;9.234;2024-03-29T02:36:47;11.80;88.50
20446;DHT22;10382;49.140;9.234;2024-03-29T02:39:14;11.70;87.10
20446;DHT22;10382;49.140;9.234;2024-03-29T02:41:43;11.70;87.40
20446;DHT22;10382;49.140;9.234;2024-03-29T02:44:10;11.70;85.90
20446;DHT22;10382;49.140;9.234;2024-03-29T02:46:37;11.80;86.60
20446;DHT22;10382;49.140;9.234;2024-03-29T02:49:03;11.70;86.30
20446;DHT22;10382;49.140;9.234;2024-03-29T02:51:29;11.80;86.90
20446;DHT22;10382;49.140;9.234;2024-03-29T02:53:56;11.90;86.10
20446;DHT22;10382;49.140;9.234;2024-03-29T02:56:23;11.90;85.30
20446;DHT22;10382;49.140;9.234;2024-03-29T02:58:51;12.00;85.10
20446;DHT22;10382;49.140;9.234;2024-03-29T03:01:18;12.00;85.70
20446;DHT22;10382;49.140;9.234;2024-03-29T03:03:44;12.00;84.90
20446;DHT22;10382;49.140;9.234;2024-03-29T03:06:10;11.90;85.20
20446;DHT22;10382;49.140;9.234;2024-03-29T03:08:36;11.90;86.00
20446;DHT22;10382;49.140;9.234;2024-03-29T03:11:21;11.90;85.40
20446;DHT22;10382;49.140;9.234;2024-03-29T03:13:47;12.10;86.20
20446;DHT22;10382;49.140;9.234;2024-03-29T03:16:16;12.10;85.00
20446;DHT22;10382;49.140;9.234;2024-03-29T03:18:41;12.20;85.10
20446;DHT22;10382;49.140;9.234;2024-03-29T03:21:08;12.20;84.00
20446;DHT22;10382;49.140;9.234;2024-03-29T03:23:34;12.10;83.80
20446;DHT22;10382;49.140;9.234;2024-03-29T03:26:02;12.10;84.00
20446;DHT22;10382;49.140;9.234;2024-03-29T03:28:29;12.10;84.70
20446;DHT22;10382;49.140;9.234;2024-03-29T03:30:56;12.10;84.40
20446;DHT22;10382;49.140;9.234;2024-03-29T03:33:23;12.10;84.70
20446;DHT22;10382;49.140;9.234;2024-03-29T03:35:50;11.90;84.20
20446;DHT22;10382;49.140;9.234;2024-03-29T03:38:16;11.90;84.60
20446;DHT22;10382;49.140;9.234;2024-03-29T03:40:43;11.90;85.30
20446;DHT22;10382;49.140;9.234;2024-03-29T03:43:09;11.90;86.40
20446;DHT22;10382;49.140;9.234;2024-03-29T03:45:37;11.80;89.40
20446;DHT22;10382;49.140;9.234;2024-03-29T03:48:03;11.50;90.20
20446;DHT22;10382;49.140;9.234;2024-03-29T03:50:32;11.40;90.20
20446;DHT22;10382;49.140;9.234;2024-03-29T03:52:58;11.40;91.90
20446;DHT22;10382;49.140;9.234;2024-03-29T03:55:25;11.20;93.40
20446;DHT22;10382;49.140;9.234;2024-03-29T03:57:51;11.00;92.60
20446;DHT22;10382;49.140;9.234;2024-03-29T04:00:19;10.80;93.10
20446;DHT22;10382;49.140;9.234;2024-03-29T04:02:47;10.90;93.70
20446;DHT22;10382;49.140;9.234;2024-03-29T04:05:15;10.80;97.30
20446;DHT22;10382;49.140;9.234;2024-03-29T04:07:42;10.70;98.30
20446;DHT22;10382;49.140;9.234;2024-03-29T04:10:09;10.60;99.20
20446;DHT22;10382;49.140;9.234;2024-03-29T04:12:35;10.40;99.90
20446;DHT22;10382;49.140;9.234;2024-03-29T04:15:03;10.40;99.90
20446;DHT22;10382;49.140;9.234;2024-03-29T04:17:29;10.30;99.90
20446;DHT22;10382;49.140;9.234;2024-03-29T04:19:56;10.40;99.90
20446;DHT22;10382;49.140;9.234;2024-03-29T04:22:22;10.40;99.90
20446;DHT22;10382;49.140;9.234;2024-03-29T04:24:51;10.50;99.90
20446;DHT22;10382;49.140;9.234;2024-03-29T04:27:17;10.60;99.30
20446;DHT22;10382;49.140;9.234;2024-03-29T04:29:44;10.80;97.20
20446;DHT22;10382;49.140;9.234;2024-03-29T04:32:09;10.80;96.60
20446;DHT22;10382;49.140;9.234;2024-03-29T04:34:36;10.90;95.50
20446;DHT22;10382;49.140;9.234;2024-03-29T04:37:02;11.00;94.60
20446;DHT22;10382;49.140;9.234;2024-03-29T04:39:29;11.00;92.80
20446;DHT22;10382;49.140;9.234;2024-03-29T04:41:57;11.10;92.50
20446;DHT22;10382;49.140;9.234;2024-03-29T04:44:25;11.20;91.30
20446;DHT22;10382;49.140;9.234;2024-03-29T04:46:52;11.30;91.10
20446;DHT22;10382;49.140;9.234;2024-03-29T04:49:22;11.30;91.10
20446;DHT22;10382;49.140;9.234;2024-03-29T04:51:55;11.30;91.40
20446;DHT22;10382;49.140;9.234;2024-03-29T04:54:22;11.60;91.60
20446;DHT22;10382;49.140;9.234;2024-03-29T04:56:49;11.80;93.20
20446;DHT22;10382;49.140;9.234;2024-03-29T04:59:17;12.00;94.40
20446;DHT22;10382;49.140;9.234;2024-03-29T05:01:46;12.10;95.40
20446;DHT22;10382;49.140;9.234;2024-03-29T05:04:15;12.20;94.50
20446;DHT22;10382;49.140;9.234;2024-03-29T05:06:44;12.30;93.80
20446;DHT22;10382;49.140;9.234;2024-03-29T05:09:11;12.30;94.70
20446;DHT22;10382;49.140;9.234;2024-03-29T05:11:38;12.30;96.10
20446;DHT22;10382;49.140;9.234;2024-03-29T05:14:05;12.40;95.50
20446;DHT22;10382;49.140;9.234;2024-03-29T05:16:33;12.50;95.00
20446;DHT22;10382;49.140;9.234;2024-03-29T05:19:00;12.50;94.80
20446;DHT22;10382;49.140;9.234;2024-03-29T05:21:26;12.60;95.10
20446;DHT22;10382;49.140;9.234;2024-03-29T05:23:53;12.70;96.20
20446;DHT22;10382;49.140;9.234;2024-03-29T05:26:20;12.80;97.00
20446;DHT22;10382;49.140;9.234;2024-03-29T05:28:47;12.90;96.60
20446;DHT22;10382;49.140;9.234;2024-03-29T05:31:14;13.00;96.50
20446;DHT22;10382;49.140;9.234;2024-03-29T05:33:43;13.10;96.60
20446;DHT22;10382;49.140;9.234;2024-03-29T05:36:10;13.20;96.50
20446;DHT22;10382;49.140;9.234;2024-03-29T05:38:38;13.10;96.20
20446;DHT22;10382;49.140;9.234;2024-03-29T05:41:05;13.00;96.20
20446;DHT22;10382;49.140;9.234;2024-03-29T05:43:32;13.00;95.90
20446;DHT22;10382;49.140;9.234;2024-03-29T05:45:59;13.10;96.80
20446;DHT22;10382;49.140;9.234;2024-03-29T05:48:27;13.00;96.20
20446;DHT22;10382;49.140;9.234;2024-03-29T05:50:55;13.00;97.30
20446;DHT22;10382;49.140;9.234;2024-03-29T05:53:22;12.90;97.80
20446;DHT22;10382;49.140;9.234;2024-03-29T05:55:49;12.90;98.10
20446;DHT22;10382;49.140;9.234;2024-03-29T05:58:16;12.90;98.40
20446;DHT22;10382;49.140;9.234;2024-03-29T06:00:46;13.00;98.70
20446;DHT22;10382;49.140;9.234;2024-03-29T06:03:13;13.10;98.30
20446;DHT22;10382;49.140;9.234;2024-03-29T06:05:41;13.00;98.70
20446;DHT22;10382;49.140;9.234;2024-03-29T06:08:09;12.80;99.10
20446;DHT22;10382;49.140;9.234;2024-03-29T06:10:36;12.60;99.90
20446;DHT22;10382;49.140;9.234;2024-03-29T06:13:03;12.50;99.90
20446;DHT22;10382;49.140;9.234;2024-03-29T06:15:35;11.90;98.00
20446;DHT22;10382;49.140;9.234;2024-03-29T06:18:20;11.60;98.10
20446;DHT22;10382;49.140;9.234;2024-03-29T06:20:47;11.70;99.10
20446;DHT22;10382;49.140;9.234;2024-03-29T06:23:15;11.80;99.90
20446;DHT22;10382;49.140;9.234;2024-03-29T06:25:42;11.90;99.90
20446;DHT22;10382;49.140;9.234;2024-03-29T06:28:09;12.10;99.90
20446;DHT22;10382;49.140;9.234;2024-03-29T06:30:35;12.20;99.90
20446;DHT22;10382;49.140;9.234;2024-03-29T06:33:03;12.20;98.60
20446;DHT22;10382;49.140;9.234;2024-03-29T06:35:31;12.10;98.40
20446;DHT22;10382;49.140;9.234;2024-03-29T06:37:57;12.10;98.70
20446;DHT22;10382;49.140;9.234;2024-03-29T06:40:26;12.00;98.30
20446;DHT22;10382;49.140;9.234;2024-03-29T06:42:52;11.90;98.30
20446;DHT22;10382;49.140;9.234;2024-03-29T06:45:21;11.90;98.80
20446;DHT22;10382;49.140;9.234;2024-03-29T06:47:48;11.90;99.50
20446;DHT22;10382;49.140;9.234;2024-03-29T06:50:15;12.10;99.80
20446;DHT22;10382;49.140;9.234;2024-03-29T06:52:42;11.90;99.90
20446;DHT22;10382;49.140;9.234;2024-03-29T06:55:09;12.00;99.90
20446;DHT22;10382;49.140;9.234;2024-03-29T06:57:39;12.20;99.90
20446;DHT22;10382;49.140;9.234;2024-03-29T07:00:06;12.20;99.90
20446;DHT22;10382;49.140;9.234;2024-03-29T07:02:34;11.90;99.90
20446;DHT22;10382;49.140;9.234;2024-03-29T07:05:01;12.10;99.90
20446;DHT22;10382;49.140;9.234;2024-03-29T07:07:31;12.20;99.90
20446;DHT22;10382;49.140;9.234;2024-03-29T07:09:58;12.50;99.90
20446;DHT22;10382;49.140;9.234;2024-03-29T07:12:24;12.50;99.90
20446;DHT22;10382;49.140;9.234;2024-03-29T07:14:53;12.70;99.90
20446;DHT22;10382;49.140;9.234;2024-03-29T07:17:20;12.90;99.90
20446;DHT22;10382;49.140;9.234;2024-03-29T07:19:46;13.20;99.90
20446;DHT22;10382;49.140;9.234;2024-03-29T07:22:13;13.30;98.70
20446;DHT22;10382;49.140;9.234;2024-03-29T07:24:40;13.30;99.10
20446;DHT22;10382;49.140;9.234;2024-03-29T07:27:07;13.30;99.50
20446;DHT22;10382;49.140;9.234;2024-03-29T07:29:34;13.40;98.10
20446;DHT22;10382;49.140;9.234;2024-03-29T07:32:04;13.50;98.40
20446;DHT22;10382;49.140;9.234;2024-03-29T07:34:31;13.60;95.70
20446;DHT22;10382;49.140;9.234;2024-03-29T07:36:57;13.60;96.80
20446;DHT22;10382;49.140;9.234;2024-03-29T07:39:24;13.60;97.00
20446;DHT22;10382;49.140;9.234;2024-03-29T07:41:51;13.70;93.10
20446;DHT22;10382;49.140;9.234;2024-03-29T07:44:18;13.60;95.60
20446;DHT22;10382;49.140;9.234;2024-03-29T07:46:45;13.50;94.90
20446;DHT22;10382;49.140;9.234;2024-03-29T07:49:13;13.20;93.10
20446;DHT22;10382;49.140;9.234;2024-03-29T07:51:40;13.00;93.40
20446;DHT22;10382;49.140;9.234;2024-03-29T07:54:07;13.10;94.10
20446;DHT22;10382;49.140;9.234;2024-03-29T07:56:34;13.20;94.40
20446;DHT22;10382;49.140;9.234;2024-03-29T07:59:01;13.20;92.60
20446;DHT22;10382;49.140;9.234;2024-03-29T08:01:28;13.30;91.90
20446;DHT22;10382;49.140;9.234;2024-03-29T08:03:54;13.30;93.40
20446;DHT22;10382;49.140;9.234;2024-03-29T08:06:23;13.30;94.20
20446;DHT22;10382;49.140;9.234;2024-03-29T08:08:50;13.40;94.70
20446;DHT22;10382;49.140;9.234;2024-03-29T08:11:17;13.30;96.80
20446;DHT22;10382;49.140;9.234;2024-03-29T08:13:44;13.30;98.20
20446;DHT22;10382;49.140;9.234;2024-03-29T08:16:11;13.40;99.30
20446;DHT22;10382;49.140;9.234;2024-03-29T08:18:38;13.30;99.90
20446;DHT22;10382;49.140;9.234;2024-03-29T08:21:05;13.30;99.90
20446;DHT22;10382;49.140;9.234;2024-03-29T08:23:39;13.20;99.90
20446;DHT22;10382;49.140;9.234;2024-03-29T08:26:06;13.10;99.90
20446;DHT22;10382;49.140;9.234;2024-03-29T08:28:33;12.80;99.90
20446;DHT22;10382;49.140;9.234;2024-03-29T08:31:02;12.60;99.90
20446;DHT22;10382;49.140;9.234;2024-03-29T08:33:29;12.60;99.90
20446;DHT22;10382;49.140;9.234;2024-03-29T08:35:57;12.60;99.90
20446;DHT22;10382;49.140;9.234;2024-03-29T08:38:24;12.40;99.90
20446;DHT22;10382;49.140;9.234;2024-03-29T08:40:52;12.30;99.90
20446;DHT22;10382;49.140;9.234;2024-03-29T08:43:19;12.20;99.90
20446;DHT22;10382;49.140;9.234;2024-03-29T08:45:46;11.90;99.90
20446;DHT22;10382;49.140;9.234;2024-03-29T08:48:13;11.50;99.90
20446;DHT22;10382;49.140;9.234;2024-03-29T08:50:40;11.20;99.90
20446;DHT22;10382;49.140;9.234;2024-03-29T08:53:07;10.90;99.90
20446;DHT22;10382;49.140;9.234;2024-03-29T08:55:34;10.70;99.90
20446;DHT22;10382;49.140;9.234;2024-03-29T08:58:03;10.70;99.90
20446;DHT22;10382;49.140;9.234;2024-03-29T09:00:30;10.40;99.90
20446;DHT22;10382;49.140;9.234;2024-03-29T09:02:58;10.40;99.90
20446;DHT22;10382;49.140;9.234;2024-03-29T09:05:25;10.40;99.90
20446;DHT22;10382;49.140;9.234;2024-03-29T09:07:53;10.40;99.90
20446;DHT22;10382;49.140;9.234;2024-03-29T09:10:21;10.30;99.90
20446;DHT22;10382;49.140;9.234;2024-03-29T09:12:48;10.30;99.90
20446;DHT22;10382;49.140;9.234;2024-03-29T09:15:16;10.30;99.90
20446;DHT22;10382;49.140;9.234;2024-03-29T09:17:43;10.50;99.90
20446;DHT22;10382;49.140;9.234;2024-03-29T09:20:10;10.60;99.90
20446;DHT22;10382;49.140;9.234;2024-03-29T09:22:37;10.70;99.90
20446;DHT22;10382;49.140;9.234;2024-03-29T09:25:05;10.80;99.90
20446;DHT22;10382;49.140;9.234;2024-03-29T09:27:34;10.80;99.90
20446;DHT22;10382;49.140;9.234;2024-03-29T09:30:02;10.90;99.90
20446;DHT22;10382;49.140;9.234;2024-03-29T09:32:32;11.10;99.90
20446;DHT22;10382;49.140;9.234;2024-03-29T09:34:59;11.30;99.90
20446;DHT22;10382;49.140;9.234;2024-03-29T09:37:27;11.60;99.90
20446;DHT22;10382;49.140;9.234;2024-03-29T09:39:53;11.70;99.90
20446;DHT22;10382;49.140;9.234;2024-03-29T09:42:22;11.90;99.90
20446;DHT22;10382;49.140;9.234;2024-03-29T09:44:50;12.10;99.90
20446;DHT22;10382;49.140;9.234;2024-03-29T09:47:18;12.10;99.90
20446;DHT22;10382;49.140;9.234;2024-03-29T09:49:48;12.20;99.90
20446;DHT22;10382;49.140;9.234;2024-03-29T09:52:17;12.10;99.90
20446;DHT22;10382;49.140;9.234;2024-03-29T09:54:45;12.10;99.90
20446;DHT22;10382;49.140;9.234;2024-03-29T09:57:13;12.00;99.90
20446;DHT22;10382;49.140;9.234;2024-03-29T09:59:39;11.90;99.90
20446;DHT22;10382;49.140;9.234;2024-03-29T10:02:14;12.10;99.90
20446;DHT22;10382;49.140;9.234;2024-03-29T10:04:42;12.40;99.90
20446;DHT22;10382;49.140;9.234;2024-03-29T10:07:10;12.80;99.90
20446;DHT22;10382;49.140;9.234;2024-03-29T10:09:38;13.10;99.90
20446;DHT22;10382;49.140;9.234;2024-03-29T10:12:06;13.40;99.90
20446;DHT22;10382;49.140;9.234;2024-03-29T10:14:43;13.60;99.90
20446;DHT22;10382;49.140;9.234;2024-03-29T10:17:15;13.80;99.90
20446;DHT22;10382;49.140;9.234;2024-03-29T10:19:42;14.10;99.90
20446;DHT22;10382;49.140;9.234;2024-03-29T10:22:10;14.30;99.90
20446;DHT22;10382;49.140;9.234;2024-03-29T10:24:38;14.20;99.90
20446;DHT22;10382;49.140;9.234;2024-03-29T10:27:05;13.70;99.90
20446;DHT22;10382;49.140;9.234;2024-03-29T10:29:32;13.30;99.90
20446;DHT22;10382;49.140;9.234;2024-03-29T10:31:59;12.90;99.90
20446;DHT22;10382;49.140;9.234;2024-03-29T10:34:27;12.60;99.90
20446;DHT22;10382;49.140;9.234;2024-03-29T10:36:56;12.70;99.90
20446;DHT22;10382;49.140;9.234;2024-03-29T10:39:24;12.90;99.90
20446;DHT22;10382;49.140;9.234;2024-03-29T10:41:52;13.00;99.90
20446;DHT22;10382;49.140;9.234;2024-03-29T10:44:20;13.10;99.90
20446;DHT22;10382;49.140;9.234;2024-03-29T10:46:48;13.20;99.90
20446;DHT22;10382;49.140;9.234;2024-03-29T10:49:17;13.50;99.90
20446;DHT22;10382;49.140;9.234;2024-03-29T10:51:45;13.70;99.90
20446;DHT22;10382;49.140;9.234;2024-03-29T10:54:12;14.00;99.90
20446;DHT22;10382;49.140;9.234;2024-03-29T10:56:40;14.00;99.90
20446;DHT22;10382;49.140;9.234;2024-03-29T10:59:16;13.80;99.90
20446;DHT22;10382;49.140;9.234;2024-03-29T11:01:49;14.00;99.90
20446;DHT22;10382;49.140;9.234;2024-03-29T11:04:22;14.20;99.90
20446;DHT22;10382;49.140;9.234;2024-03-29T11:06:54;14.30;99.90
20446;DHT22;10382;49.140;9.234;2024-03-29T11:09:28;14.30;99.90
20446;DHT22;10382;49.140;9.234;2024-03-29T11:11:58;15.40;99.90
20446;DHT22;10382;49.140;9.234;2024-03-29T11:14:33;16.50;99.90
20446;DHT22;10382;49.140;9.234;2024-03-29T11:17:02;17.00;99.90
20446;DHT22;10382;49.140;9.234;2024-03-29T11:19:31;17.10;99.90
20446;DHT22;10382;49.140;9.234;2024-03-29T11:21:58;16.70;99.90
20446;DHT22;10382;49.140;9.234;2024-03-29T11:24:26;16.10;99.90
20446;DHT22;10382;49.140;9.234;2024-03-29T11:26:54;15.70;99.90
20446;DHT22;10382;49.140;9.234;2024-03-29T11:29:23;15.50;99.90
20446;DHT22;10382;49.140;9.234;2024-03-29T11:31:56;15.40;99.90
20446;DHT22;10382;49.140;9.234;2024-03-29T11:34:24;15.40;99.90
20446;DHT22;10382;49.140;9.234;2024-03-29T11:36:51;15.60;99.90
20446;DHT22;10382;49.140;9.234;2024-03-29T11:39:21;15.30;99.90
20446;DHT22;10382;49.140;9.234;2024-03-29T11:41:48;15.10;99.90
20446;DHT22;10382;49.140;9.234;2024-03-29T11:44:15;14.90;99.90
20446;DHT22;10382;49.140;9.234;2024-03-29T11:46:44;15.00;99.90
20446;DHT22;10382;49.140;9.234;2024-03-29T11:49:12;15.00;99.90
20446;DHT22;10382;49.140;9.234;2024-03-29T11:51:41;15.00;99.90
20446;DHT22;10382;49.140;9.234;2024-03-29T11:54:08;14.90;99.90
20446;DHT22;10382;49.140;9.234;2024-03-29T11:56:35;14.80;99.90
20446;DHT22;10382;49.140;9.234;2024-03-29T11:59:03;14.70;99.90
20446;DHT22;10382;49.140;9.234;2024-03-29T12:01:30;14.60;99.90
20446;DHT22;10382;49.140;9.234;2024-03-29T12:04:00;14.50;99.90
20446;DHT22;10382;49.140;9.234;2024-03-29T12:06:27;14.50;99.90
20446;DHT22;10382;49.140;9.234;2024-03-29T12:08:53;14.50;99.90
20446;DHT22;10382;49.140;9.234;2024-03-29T12:11:21;14.80;99.90
20446;DHT22;10382;49.140;9.234;2024-03-29T12:13:49;15.00;99.90
20446;DHT22;10382;49.140;9.234;2024-03-29T12:16:16;15.10;99.90
20446;DHT22;10382;49.140;9.234;2024-03-29T12:18:46;15.20;99.90
20446;DHT22;10382;49.140;9.234;2024-03-29T12:21:15;15.30;99.90
20446;DHT22;10382;49.140;9.234;2024-03-29T12:23:47;15.30;99.90
20446;DHT22;10382;49.140;9.234;2024-03-29T12:26:14;15.50;99.90
20446;DHT22;10382;49.140;9.234;2024-03-29T12:28:42;15.70;99.90
20446;DHT22;10382;49.140;9.234;2024-03-29T12:31:11;15.70;99.90
20446;DHT22;10382;49.140;9.234;2024-03-29T12:33:37;15.90;99.90
20446;DHT22;10382;49.140;9.234;2024-03-29T12:36:05;16.00;99.90
20446;DHT22;10382;49.140;9.234;2024-03-29T12:38:33;16.20;99.90
20446;DHT22;10382;49.140;9.234;2024-03-29T12:41:00;16.30;99.90
20446;DHT22;10382;49.140;9.234;2024-03-29T12:43:27;16.50;99.90
20446;DHT22;10382;49.140;9.234;2024-03-29T12:45:54;16.50;99.90
20446;DHT22;10382;49.140;9.234;2024-03-29T12:48:22;16.80;99.90
20446;DHT22;10382;49.140;9.234;2024-03-29T12:50:49;17.10;99.90
20446;DHT22;10382;49.140;9.234;2024-03-29T12:53:17;17.40;99.90
20446;DHT22;10382;49.140;9.234;2024-03-29T12:55:47;17.50;99.90
20446;DHT22;10382;49.140;9.234;2024-03-29T12:58:15;17.60;99.90
20446;DHT22;10382;49.140;9.234;2024-03-29T13:00:43;17.50;99.90
20446;DHT22;10382;49.140;9.234;2024-03-29T13:03:10;16.60;99.90
20446;DHT22;10382;49.140;9.234;2024-03-29T13:05:38;16.60;99.90
20446;DHT22;10382;49.140;9.234;2024-03-29T13:08:08;16.90;99.90
20446;DHT22;10382;49.140;9.234;2024-03-29T13:10:36;16.90;99.90
20446;DHT22;10382;49.140;9.234;2024-03-29T13:13:04;17.10;99.90
20446;DHT22;10382;49.140;9.234;2024-03-29T13:15:33;17.30;99.90
20446;DHT22;10382;49.140;9.234;2024-03-29T13:18:00;17.50;99.90
20446;DHT22;10382;49.140;9.234;2024-03-29T13:20:27;17.60;99.90
20446;DHT22;10382;49.140;9.234;2024-03-29T13:22:54;17.30;99.90
20446;DHT22;10382;49.140;9.234;2024-03-29T13:25:23;17.30;99.90
20446;DHT22;10382;49.140;9.234;2024-03-29T13:27:50;17.10;99.90
20446;DHT22;10382;49.140;9.234;2024-03-29T13:30:21;16.40;99.90
20446;DHT22;10382;49.140;9.234;2024-03-29T13:32:48;15.90;99.90
20446;DHT22;10382;49.140;9.234;2024-03-29T13:35:16;15.40;99.90
20446;DHT22;10382;49.140;9.234;2024-03-29T13:37:45;15.20;99.90
20446;DHT22;10382;49.140;9.234;2024-03-29T13:40:13;15.20;99.90
20446;DHT22;10382;49.140;9.234;2024-03-29T13:42:40;15.40;99.90
20446;DHT22;10382;49.140;9.234;2024-03-29T13:45:08;15.80;99.90
20446;DHT22;10382;49.140;9.234;2024-03-29T13:47:38;16.30;99.90
20446;DHT22;10382;49.140;9.234;2024-03-29T13:50:06;16.80;99.90
20446;DHT22;10382;49.140;9.234;2024-03-29T13:52:34;17.80;99.90
20446;DHT22;10382;49.140;9.234;2024-03-29T13:55:01;19.80;99.90
20446;DHT22;10382;49.140;9.234;2024-03-29T13:57:29;20.90;99.90
20446;DHT22;10382;49.140;9.234;2024-03-29T13:59:56;21.80;99.90
20446;DHT22;10382;49.140;9.234;2024-03-29T14:02:24;22.30;99.90
20446;DHT22;10382;49.140;9.234;2024-03-29T14:04:54;23.50;99.90
20446;DHT22;10382;49.140;9.234;2024-03-29T14:07:23;24.70;99.90
20446;DHT22;10382;49.140;9.234;2024-03-29T14:09:50;25.10;99.90
20446;DHT22;10382;49.140;9.234;2024-03-29T14:12:17;24.70;99.90
20446;DHT22;10382;49.140;9.234;2024-03-29T14:14:46;23.30;99.90
20446;DHT22;10382;49.140;9.234;2024-03-29T14:17:16;22.50;99.90
20446;DHT22;10382;49.140;9.234;2024-03-29T14:19:43;21.80;99.90
20446;DHT22;10382;49.140;9.234;2024-03-29T14:22:11;21.30;99.90
20446;DHT22;10382;49.140;9.234;2024-03-29T14:24:41;21.00;99.90
20446;DHT22;10382;49.140;9.234;2024-03-29T14:27:07;21.00;99.90
20446;DHT22;10382;49.140;9.234;2024-03-29T14:29:35;21.00;99.90
20446;DHT22;10382;49.140;9.234;2024-03-29T14:32:02;20.80;99.90
20446;DHT22;10382;49.140;9.234;2024-03-29T14:34:29;20.80;99.90
20446;DHT22;10382;49.140;9.234;2024-03-29T14:36:57;20.90;99.90
20446;DHT22;10382;49.140;9.234;2024-03-29T14:39:25;20.80;99.90
20446;DHT22;10382;49.140;9.234;2024-03-29T14:41:53;20.70;99.90
20446;DHT22;10382;49.140;9.234;2024-03-29T14:44:21;19.90;99.90
20446;DHT22;10382;49.140;9.234;2024-03-29T14:46:48;19.40;99.90
20446;DHT22;10382;49.140;9.234;2024-03-29T14:49:15;19.50;99.90
20446;DHT22;10382;49.140;9.234;2024-03-29T14:51:43;19.80;99.90
20446;DHT22;10382;49.140;9.234;2024-03-29T14:54:10;20.20;99.90
20446;DHT22;10382;49.140;9.234;2024-03-29T14:56:38;20.70;99.90
20446;DHT22;10382;49.140;9.234;2024-03-29T14:59:05;20.80;99.90
20446;DHT22;10382;49.140;9.234;2024-03-29T15:01:35;20.70;99.90
20446;DHT22;10382;49.140;9.234;2024-03-29T15:04:02;21.00;99.90
20446;DHT22;10382;49.140;9.234;2024-03-29T15:06:30;21.20;99.90
20446;DHT22;10382;49.140;9.234;2024-03-29T15:08:57;21.50;99.90
20446;DHT22;10382;49.140;9.234;2024-03-29T15:11:24;22.00;99.90
20446;DHT22;10382;49.140;9.234;2024-03-29T15:13:53;22.50;99.90
20446;DHT22;10382;49.140;9.234;2024-03-29T15:16:20;23.00;99.90
20446;DHT22;10382;49.140;9.234;2024-03-29T15:18:47;22.80;99.90
20446;DHT22;10382;49.140;9.234;2024-03-29T15:21:14;22.20;99.90
20446;DHT22;10382;49.140;9.234;2024-03-29T15:23:41;22.30;99.90
20446;DHT22;10382;49.140;9.234;2024-03-29T15:26:08;22.40;99.90
20446;DHT22;10382;49.140;9.234;2024-03-29T15:28:35;22.30;99.90
20446;DHT22;10382;49.140;9.234;2024-03-29T15:31:21;22.10;99.90